Time;durP1;ratioP1;P1;durP2;ratioP2;P2;SDS_P1;SDS_P2;PMS_P1;PMS_P2;Temp;Humidity;BMP_temperature;BMP_pressure;BME280_temperature;BME280_humidity;BME280_pressure;Samples;Min_cycle;Max_cycle;Signal;HPM_P1;HPM_P2
2024/01/30 00:00:43;;;;;;;151.05;24.77;;;;;;;;;;5106239;28;20031;-59
2024/01/30 00:03:09;;;;;;;62.30;17.27;;;;;;;;;;5106261;28;20256;-62
2024/01/30 00:05:36;;;;;;;207.18;24.48;;;;;;;;;;5106088;28;20024;-59
2024/01/30 00:08:03;;;;;;;131.63;20.85;;;;;;;;;;5106140;28;20075;-61
2024/01/30 00:10:29;;;;;;;75.97;17.02;;;;;;;;;;5106117;28;20016;-61
2024/01/30 00:12:56;;;;;;;67.97;16.30;;;;;;;;;;5105743;28;20043;-62
2024/01/30 00:15:22;;;;;;;78.38;15.63;;;;;;;;;;5105968;28;20260;-61
2024/01/30 00:17:51;;;;;;;70.50;16.10;;;;;;;;;;5105901;28;20016;-62
2024/01/30 00:20:18;;;;;;;54.55;16.23;;;;;;;;;;5105746;28;20028;-58
2024/01/30 00:22:45;;;;;;;65.38;16.50;;;;;;;;;;5105870;28;20020;-59
2024/01/30 00:25:11;;;;;;;86.00;19.00;;;;;;;;;;5105694;28;20087;-63
2024/01/30 00:27:38;;;;;;;69.45;17.48;;;;;;;;;;5105585;28;20026;-59
2024/01/30 00:30:05;;;;;;;74.57;19.33;;;;;;;;;;5092516;28;20190;-61
2024/01/30 00:32:31;;;;;;;71.07;18.98;;;;;;;;;;5086328;28;20044;-62
2024/01/30 00:34:58;;;;;;;81.38;21.27;;;;;;;;;;5085401;28;20019;-61
2024/01/30 00:37:24;;;;;;;93.82;24.20;;;;;;;;;;5085174;28;20087;-61
2024/01/30 00:39:51;;;;;;;56.75;22.15;;;;;;;;;;5085375;28;20084;-60
2024/01/30 00:42:18;;;;;;;86.70;21.77;;;;;;;;;;5085542;28;20050;-61
2024/01/30 00:44:44;;;;;;;63.33;20.15;;;;;;;;;;5084949;28;20035;-61
2024/01/30 00:47:11;;;;;;;92.75;22.65;;;;;;;;;;5085526;28;20028;-62
2024/01/30 00:49:38;;;;;;;82.47;20.70;;;;;;;;;;5085001;28;20024;-62
2024/01/30 00:52:05;;;;;;;55.10;18.90;;;;;;;;;;5084350;28;20040;-62
2024/01/30 00:54:32;;;;;;;45.75;17.67;;;;;;;;;;5084976;28;20028;-63
2024/01/30 00:56:58;;;;;;;47.88;18.90;;;;;;;;;;5085313;28;20069;-59
2024/01/30 00:59:25;;;;;;;70.15;22.13;;;;;;;;;;5084777;28;20012;-57
2024/01/30 01:01:51;;;;;;;59.00;18.77;;;;;;;;;;5085222;28;20027;-61
2024/01/30 01:04:18;;;;;;;54.78;18.60;;;;;;;;;;5084876;28;20190;-59
2024/01/30 01:06:45;;;;;;;32.92;16.27;;;;;;;;;;5084937;28;20040;-60
2024/01/30 01:09:12;;;;;;;32.97;15.77;;;;;;;;;;5084999;28;20040;-60
2024/01/30 01:11:38;;;;;;;36.45;16.00;;;;;;;;;;5084928;28;20020;-59
2024/01/30 01:14:05;;;;;;;24.75;15.13;;;;;;;;;;5084351;28;20052;-60
2024/01/30 01:16:32;;;;;;;35.00;15.20;;;;;;;;;;5084576;28;20324;-60
2024/01/30 01:19:00;;;;;;;29.98;15.20;;;;;;;;;;5084583;28;20324;-57
2024/01/30 01:21:26;;;;;;;40.58;16.55;;;;;;;;;;5084235;28;20016;-57
2024/01/30 01:23:54;;;;;;;35.60;15.20;;;;;;;;;;5084384;28;20028;-61
2024/01/30 01:26:21;;;;;;;56.08;17.42;;;;;;;;;;5084566;28;20093;-58
2024/01/30 01:28:48;;;;;;;36.28;15.75;;;;;;;;;;5084202;28;20025;-58
2024/01/30 01:31:14;;;;;;;39.75;15.73;;;;;;;;;;5084402;28;20088;-58
2024/01/30 01:33:41;;;;;;;54.17;15.65;;;;;;;;;;5084192;28;20344;-61
2024/01/30 01:36:08;;;;;;;35.13;14.13;;;;;;;;;;5084113;28;20016;-62
2024/01/30 01:38:34;;;;;;;36.67;14.65;;;;;;;;;;5084232;28;20025;-60
2024/01/30 01:41:01;;;;;;;33.03;14.23;;;;;;;;;;5084322;28;20050;-58
2024/01/30 01:43:28;;;;;;;30.65;14.32;;;;;;;;;;5083930;28;20052;-66
2024/01/30 01:45:54;;;;;;;86.47;17.50;;;;;;;;;;5084269;28;20066;-61
2024/01/30 01:48:21;;;;;;;75.90;20.00;;;;;;;;;;5084141;28;20044;-62
2024/01/30 01:50:48;;;;;;;46.22;20.88;;;;;;;;;;5083580;28;20045;-62
2024/01/30 01:53:16;;;;;;;43.92;17.40;;;;;;;;;;5083953;28;20028;-63
2024/01/30 01:55:42;;;;;;;54.90;17.50;;;;;;;;;;5083488;28;20030;-60
2024/01/30 01:58:12;;;;;;;32.72;15.80;;;;;;;;;;5083876;28;20012;-63
2024/01/30 02:00:41;;;;;;;33.38;15.55;;;;;;;;;;5083841;28;20028;-60
2024/01/30 02:03:09;;;;;;;50.88;16.00;;;;;;;;;;5083896;28;20087;-60
2024/01/30 02:05:35;;;;;;;40.83;14.32;;;;;;;;;;5083811;28;20209;-58
2024/01/30 02:08:03;;;;;;;33.45;14.40;;;;;;;;;;5083960;28;20012;-60
2024/01/30 02:10:29;;;;;;;27.70;13.27;;;;;;;;;;5083846;28;20087;-57
2024/01/30 02:12:56;;;;;;;30.60;13.35;;;;;;;;;;5083600;28;20016;-58
2024/01/30 02:15:23;;;;;;;25.85;13.07;;;;;;;;;;5083864;28;20016;-59
2024/01/30 02:17:49;;;;;;;28.58;13.80;;;;;;;;;;5083791;28;20023;-63
2024/01/30 02:20:16;;;;;;;25.27;12.75;;;;;;;;;;5083571;28;20020;-63
2024/01/30 02:22:43;;;;;;;22.15;12.82;;;;;;;;;;5083721;28;20020;-62
2024/01/30 02:25:10;;;;;;;20.02;12.73;;;;;;;;;;5083883;28;20472;-64
2024/01/30 02:27:37;;;;;;;18.58;12.55;;;;;;;;;;5083615;28;20139;-60
2024/01/30 02:30:03;;;;;;;24.58;12.30;;;;;;;;;;5083692;28;20062;-58
2024/01/30 02:32:30;;;;;;;26.38;12.57;;;;;;;;;;5084133;28;20058;-59
2024/01/30 02:34:56;;;;;;;102.28;19.13;;;;;;;;;;5083378;28;20013;-55
2024/01/30 02:37:23;;;;;;;58.22;15.88;;;;;;;;;;5094506;28;20095;-54
2024/01/30 02:39:50;;;;;;;43.42;14.95;;;;;;;;;;5095892;28;20042;-55
2024/01/30 02:42:16;;;;;;;34.63;13.77;;;;;;;;;;5099932;28;20016;-56
2024/01/30 02:44:43;;;;;;;26.38;13.63;;;;;;;;;;5098817;28;20028;-57
2024/01/30 02:47:09;;;;;;;273.95;38.75;;;;;;;;;;5102417;28;20070;-57
2024/01/30 02:49:36;;;;;;;44.25;15.65;;;;;;;;;;5103248;28;20024;-54
2024/01/30 02:52:02;;;;;;;36.17;15.13;;;;;;;;;;5103319;28;20052;-55
2024/01/30 02:54:30;;;;;;;54.83;16.70;;;;;;;;;;5101814;28;20177;-51
2024/01/30 02:59:42;;;;;;;37.88;16.42;;;;;;;;;;5101013;28;20062;-54
2024/01/30 03:02:08;;;;;;;36.58;16.02;;;;;;;;;;5103820;28;20173;-59
2024/01/30 03:04:35;;;;;;;34.40;15.63;;;;;;;;;;5103301;28;20306;-58
2024/01/30 03:07:01;;;;;;;36.35;16.33;;;;;;;;;;5102536;28;20346;-52
2024/01/30 03:09:28;;;;;;;32.15;16.77;;;;;;;;;;5102303;28;20203;-57
2024/01/30 03:11:55;;;;;;;33.50;15.20;;;;;;;;;;5105224;28;20296;-55
2024/01/30 03:14:21;;;;;;;30.48;16.30;;;;;;;;;;5104327;28;20028;-53
2024/01/30 03:16:48;;;;;;;24.90;15.43;;;;;;;;;;5106980;28;20027;-57
2024/01/30 03:19:14;;;;;;;32.42;16.10;;;;;;;;;;5106799;28;20083;-54
2024/01/30 03:21:41;;;;;;;25.83;16.48;;;;;;;;;;5102006;28;20020;-55
2024/01/30 03:24:07;;;;;;;26.38;16.10;;;;;;;;;;5104055;28;20020;-60
2024/01/30 03:26:34;;;;;;;19.83;15.68;;;;;;;;;;5106908;28;20312;-59
2024/01/30 03:29:01;;;;;;;22.58;15.93;;;;;;;;;;5106732;28;20020;-57
2024/01/30 03:31:27;;;;;;;21.38;16.38;;;;;;;;;;5101505;28;20023;-56
2024/01/30 03:33:54;;;;;;;24.40;16.27;;;;;;;;;;5103626;28;20012;-57
2024/01/30 03:36:21;;;;;;;21.65;15.63;;;;;;;;;;5106826;28;20389;-57
2024/01/30 03:38:47;;;;;;;28.38;15.48;;;;;;;;;;5106612;28;20028;-53
2024/01/30 03:41:14;;;;;;;20.52;15.20;;;;;;;;;;5106461;28;20019;-59
2024/01/30 03:43:41;;;;;;;22.17;15.60;;;;;;;;;;5106582;28;20028;-55
2024/01/30 03:46:08;;;;;;;20.50;15.30;;;;;;;;;;5106213;28;20039;-58
2024/01/30 03:48:34;;;;;;;29.50;15.85;;;;;;;;;;5100511;28;20304;-59
2024/01/30 03:51:01;;;;;;;18.80;14.95;;;;;;;;;;5106112;28;20103;-56
2024/01/30 03:53:27;;;;;;;21.50;14.63;;;;;;;;;;5106241;28;20023;-54
2024/01/30 03:55:54;;;;;;;21.85;16.02;;;;;;;;;;5106437;28;20122;-57
2024/01/30 03:58:20;;;;;;;17.42;15.52;;;;;;;;;;5106043;28;20021;-59
2024/01/30 04:00:47;;;;;;;19.70;15.45;;;;;;;;;;5105970;28;20046;-59
2024/01/30 04:03:18;;;;;;;19.83;15.07;;;;;;;;;;5102314;28;20020;-57
2024/01/30 04:05:44;;;;;;;17.20;14.85;;;;;;;;;;5100460;28;20047;-55
2024/01/30 04:08:11;;;;;;;20.42;16.25;;;;;;;;;;5099592;28;20066;-56
2024/01/30 04:10:38;;;;;;;25.38;15.02;;;;;;;;;;5103651;28;20026;-59
2024/01/30 04:13:05;;;;;;;17.15;14.35;;;;;;;;;;5106046;28;20031;-58
2024/01/30 04:15:32;;;;;;;18.52;14.75;;;;;;;;;;5105726;28;20041;-58
2024/01/30 04:17:59;;;;;;;17.40;14.85;;;;;;;;;;5105815;28;20016;-55
2024/01/30 04:20:26;;;;;;;17.45;14.70;;;;;;;;;;5105784;28;20056;-53
2024/01/30 04:22:52;;;;;;;20.58;14.93;;;;;;;;;;5104880;28;20211;-49
2024/01/30 04:25:19;;;;;;;24.48;15.63;;;;;;;;;;5104933;28;20246;-55
2024/01/30 04:27:45;;;;;;;19.88;14.93;;;;;;;;;;5096806;28;20025;-60
2024/01/30 04:30:12;;;;;;;23.63;15.85;;;;;;;;;;5085594;28;20044;-59
2024/01/30 04:32:39;;;;;;;20.38;15.27;;;;;;;;;;5085319;28;20084;-59
2024/01/30 04:35:05;;;;;;;47.95;17.52;;;;;;;;;;5083818;28;20397;-54
2024/01/30 04:37:32;;;;;;;30.25;16.90;;;;;;;;;;5084191;28;20020;-58
2024/01/30 04:39:58;;;;;;;23.48;16.55;;;;;;;;;;5083719;28;20040;-57
2024/01/30 04:42:25;;;;;;;24.52;16.83;;;;;;;;;;5083987;28;20021;-56
2024/01/30 04:44:51;;;;;;;26.45;16.50;;;;;;;;;;5083589;28;20024;-55
2024/01/30 04:47:18;;;;;;;21.67;16.17;;;;;;;;;;5083955;28;20043;-55
2024/01/30 04:49:45;;;;;;;22.13;17.15;;;;;;;;;;5083764;28;20186;-57
2024/01/30 04:52:11;;;;;;;22.08;16.15;;;;;;;;;;5084873;28;20112;-56
2024/01/30 04:54:38;;;;;;;20.58;16.42;;;;;;;;;;5085159;28;20059;-59
2024/01/30 04:57:09;;;;;;;20.05;15.82;;;;;;;;;;5085299;28;20032;-57
2024/01/30 04:59:36;;;;;;;20.70;16.90;;;;;;;;;;5085106;28;20024;-59
2024/01/30 05:02:03;;;;;;;20.95;17.00;;;;;;;;;;5085270;28;20031;-55
2024/01/30 05:04:29;;;;;;;22.33;17.42;;;;;;;;;;5084772;28;20016;-55
2024/01/30 05:06:56;;;;;;;20.70;17.02;;;;;;;;;;5085168;28;20025;-59
2024/01/30 05:09:22;;;;;;;19.25;15.70;;;;;;;;;;5084870;28;20025;-63
2024/01/30 05:11:49;;;;;;;17.83;15.90;;;;;;;;;;5084976;28;20036;-58
2024/01/30 05:14:16;;;;;;;17.95;16.08;;;;;;;;;;5084653;28;20059;-56
2024/01/30 05:16:46;;;;;;;18.65;15.93;;;;;;;;;;5084954;28;20024;-59
2024/01/30 05:19:14;;;;;;;20.20;16.80;;;;;;;;;;5099061;28;20212;-52
2024/01/30 05:21:41;;;;;;;19.35;16.00;;;;;;;;;;5104783;28;20024;-55
2024/01/30 05:24:09;;;;;;;20.70;16.08;;;;;;;;;;5104859;28;20020;-55
2024/01/30 05:26:36;;;;;;;22.73;16.30;;;;;;;;;;5104932;28;20027;-55
2024/01/30 05:29:03;;;;;;;19.33;15.82;;;;;;;;;;5104673;28;20069;-51
2024/01/30 05:31:29;;;;;;;19.17;15.32;;;;;;;;;;5104067;28;20028;-51
2024/01/30 05:33:56;;;;;;;19.42;15.90;;;;;;;;;;5104511;28;20319;-59
2024/01/30 05:36:22;;;;;;;23.92;16.33;;;;;;;;;;5104831;28;20027;-56
2024/01/30 05:38:49;;;;;;;26.02;16.55;;;;;;;;;;5104636;28;20024;-55
2024/01/30 05:41:16;;;;;;;26.50;16.00;;;;;;;;;;5104562;28;20020;-60
2024/01/30 05:43:42;;;;;;;20.92;15.52;;;;;;;;;;5104489;28;20070;-58
2024/01/30 05:46:09;;;;;;;20.85;15.60;;;;;;;;;;5104699;28;20020;-51
2024/01/30 05:48:36;;;;;;;18.58;14.55;;;;;;;;;;5104323;28;20020;-53
2024/01/30 05:51:03;;;;;;;19.58;15.40;;;;;;;;;;5104097;28;20113;-51
2024/01/30 05:53:30;;;;;;;17.55;15.32;;;;;;;;;;5088412;28;20051;-57
2024/01/30 05:55:57;;;;;;;16.48;14.32;;;;;;;;;;5084072;28;20024;-48
2024/01/30 05:58:23;;;;;;;16.65;14.73;;;;;;;;;;5096690;28;20043;-56
2024/01/30 06:00:50;;;;;;;18.05;15.35;;;;;;;;;;5087870;28;20031;-57
2024/01/30 06:03:16;;;;;;;16.70;14.88;;;;;;;;;;5104352;28;20246;-54
2024/01/30 06:05:43;;;;;;;17.70;15.30;;;;;;;;;;5104234;28;20095;-56
2024/01/30 06:08:09;;;;;;;17.20;14.75;;;;;;;;;;5096183;28;20021;-52
2024/01/30 06:10:36;;;;;;;17.13;14.82;;;;;;;;;;5084003;28;20111;-54
2024/01/30 06:13:03;;;;;;;17.75;14.65;;;;;;;;;;5083731;28;20016;-55
2024/01/30 06:15:29;;;;;;;17.48;15.23;;;;;;;;;;5083965;28;20059;-56
2024/01/30 06:17:56;;;;;;;20.75;15.27;;;;;;;;;;5083817;28;20080;-50
2024/01/30 06:20:23;;;;;;;19.27;14.73;;;;;;;;;;5083731;28;20036;-56
2024/01/30 06:22:49;;;;;;;18.27;14.73;;;;;;;;;;5083852;28;20027;-54
2024/01/30 06:25:16;;;;;;;17.50;14.70;;;;;;;;;;5083801;28;20024;-52
2024/01/30 06:27:43;;;;;;;17.88;14.60;;;;;;;;;;5083616;28;20045;-53
2024/01/30 06:30:10;;;;;;;19.67;15.43;;;;;;;;;;5083853;28;20339;-53
2024/01/30 06:32:37;;;;;;;18.38;14.25;;;;;;;;;;5084179;28;20033;-55
2024/01/30 06:35:04;;;;;;;19.23;14.55;;;;;;;;;;5103790;28;20008;-58
2024/01/30 06:37:30;;;;;;;19.13;14.43;;;;;;;;;;5104383;28;20032;-55
2024/01/30 06:39:57;;;;;;;16.80;15.00;;;;;;;;;;5103911;28;20414;-52
2024/01/30 06:42:23;;;;;;;19.25;14.90;;;;;;;;;;5106248;28;20334;-52
2024/01/30 06:44:50;;;;;;;16.50;14.70;;;;;;;;;;5107856;28;20027;-54
2024/01/30 06:47:17;;;;;;;18.98;15.02;;;;;;;;;;5107782;28;20035;-56
2024/01/30 06:49:45;;;;;;;18.00;15.20;;;;;;;;;;5107689;28;20083;-58
2024/01/30 06:52:11;;;;;;;16.60;14.88;;;;;;;;;;5107477;28;20109;-59
2024/01/30 06:54:38;;;;;;;18.17;15.30;;;;;;;;;;5107705;28;20058;-59
2024/01/30 06:57:06;;;;;;;17.85;15.68;;;;;;;;;;5093430;28;20186;-56
2024/01/30 06:59:33;;;;;;;18.25;15.65;;;;;;;;;;5087393;28;20017;-58
2024/01/30 07:02:00;;;;;;;17.88;15.55;;;;;;;;;;5087683;28;20027;-57
2024/01/30 07:04:26;;;;;;;17.50;15.38;;;;;;;;;;5087115;28;20027;-56
2024/01/30 07:06:53;;;;;;;18.33;15.43;;;;;;;;;;5098221;28;20031;-56
2024/01/30 07:09:19;;;;;;;18.05;15.02;;;;;;;;;;5107352;28;20040;-58
2024/01/30 07:11:46;;;;;;;19.02;15.57;;;;;;;;;;5107588;28;20328;-57
2024/01/30 07:14:13;;;;;;;19.75;16.70;;;;;;;;;;5107361;28;20250;-57
2024/01/30 07:16:39;;;;;;;22.60;16.60;;;;;;;;;;5107561;28;20027;-58
2024/01/30 07:19:08;;;;;;;19.40;16.08;;;;;;;;;;5107161;28;20033;-57
2024/01/30 07:21:34;;;;;;;19.30;15.75;;;;;;;;;;5107473;28;20303;-58
2024/01/30 07:24:01;;;;;;;18.17;15.80;;;;;;;;;;5107184;28;20234;-59
2024/01/30 07:26:27;;;;;;;17.25;15.18;;;;;;;;;;5107310;28;20054;-61
2024/01/30 07:28:54;;;;;;;17.98;16.08;;;;;;;;;;5107182;28;20028;-60
2024/01/30 07:31:23;;;;;;;17.40;15.60;;;;;;;;;;5107037;28;20034;-60
2024/01/30 07:33:49;;;;;;;19.45;16.33;;;;;;;;;;5106843;28;20246;-57
2024/01/30 07:36:16;;;;;;;20.08;16.33;;;;;;;;;;5107113;28;20058;-57
2024/01/30 07:38:43;;;;;;;18.63;16.30;;;;;;;;;;5106956;28;20043;-55
2024/01/30 07:41:09;;;;;;;18.67;16.08;;;;;;;;;;5106985;28;20020;-54
2024/01/30 07:43:36;;;;;;;23.27;17.35;;;;;;;;;;5106709;28;20339;-55
2024/01/30 07:46:02;;;;;;;18.58;16.25;;;;;;;;;;5106870;28;20024;-55
2024/01/30 07:48:29;;;;;;;19.63;16.85;;;;;;;;;;5106654;28;20287;-53
2024/01/30 07:50:56;;;;;;;18.80;16.77;;;;;;;;;;5106278;28;20164;-54
2024/01/30 07:53:22;;;;;;;19.90;16.35;;;;;;;;;;5105651;28;20065;-60
2024/01/30 07:55:49;;;;;;;21.20;17.15;;;;;;;;;;5106681;28;20027;-56
2024/01/30 07:58:16;;;;;;;21.88;17.17;;;;;;;;;;5106366;28;20020;-56
2024/01/30 08:00:45;;;;;;;22.33;16.30;;;;;;;;;;5106620;28;20027;-57
2024/01/30 08:03:12;;;;;;;22.02;16.27;;;;;;;;;;5106414;28;20020;-57
2024/01/30 08:05:39;;;;;;;20.70;16.25;;;;;;;;;;5106450;28;20327;-58
2024/01/30 08:08:05;;;;;;;18.17;16.23;;;;;;;;;;5106347;28;20087;-56
2024/01/30 08:10:32;;;;;;;20.08;16.63;;;;;;;;;;5106290;28;20092;-57
2024/01/30 08:12:58;;;;;;;21.45;17.08;;;;;;;;;;5106020;28;20016;-54
2024/01/30 08:15:25;;;;;;;18.23;16.25;;;;;;;;;;5106172;28;20019;-58
2024/01/30 08:17:57;;;;;;;20.67;15.88;;;;;;;;;;5106161;28;20020;-57
2024/01/30 08:20:24;;;;;;;20.55;15.70;;;;;;;;;;5106199;28;20020;-59
2024/01/30 08:22:51;;;;;;;20.15;16.20;;;;;;;;;;5105924;28;20031;-56
2024/01/30 08:25:18;;;;;;;19.42;16.38;;;;;;;;;;5105971;28;20354;-56
2024/01/30 08:27:45;;;;;;;19.80;16.40;;;;;;;;;;5105807;28;20069;-53
2024/01/30 08:30:11;;;;;;;22.52;15.90;;;;;;;;;;5105884;28;20024;-59
2024/01/30 08:32:38;;;;;;;20.98;17.00;;;;;;;;;;5106032;28;20087;-59
2024/01/30 08:35:06;;;;;;;18.55;15.73;;;;;;;;;;5105997;28;20027;-60
2024/01/30 08:37:32;;;;;;;17.83;15.93;;;;;;;;;;5106202;28;20024;-61
2024/01/30 08:39:59;;;;;;;20.45;16.67;;;;;;;;;;5105935;28;20039;-61
2024/01/30 08:42:26;;;;;;;18.90;16.33;;;;;;;;;;5105996;28;20039;-60
2024/01/30 08:44:54;;;;;;;20.25;16.33;;;;;;;;;;5105578;28;20215;-60
2024/01/30 08:47:20;;;;;;;22.40;16.02;;;;;;;;;;5106025;28;20107;-60
2024/01/30 08:49:47;;;;;;;17.70;15.52;;;;;;;;;;5105372;28;20023;-59
2024/01/30 08:52:13;;;;;;;21.88;16.55;;;;;;;;;;5103087;28;20303;-60
2024/01/30 08:54:40;;;;;;;19.42;16.10;;;;;;;;;;5085136;28;20081;-61
2024/01/30 08:57:07;;;;;;;17.67;15.82;;;;;;;;;;5085313;28;20062;-57
2024/01/30 08:59:33;;;;;;;22.17;17.05;;;;;;;;;;5085101;28;20048;-60
2024/01/30 09:02:00;;;;;;;20.90;16.27;;;;;;;;;;5084912;28;20027;-60
2024/01/30 09:04:26;;;;;;;21.63;16.48;;;;;;;;;;5084690;28;20028;-59
2024/01/30 09:06:53;;;;;;;18.60;15.80;;;;;;;;;;5085250;28;20024;-59
2024/01/30 09:09:20;;;;;;;19.30;16.25;;;;;;;;;;5084787;28;20095;-58
2024/01/30 09:11:47;;;;;;;19.45;15.95;;;;;;;;;;5084867;28;20028;-55
2024/01/30 09:14:13;;;;;;;20.73;16.13;;;;;;;;;;5084654;28;20024;-58
2024/01/30 09:16:40;;;;;;;18.90;16.40;;;;;;;;;;5085048;28;20013;-56
2024/01/30 09:19:07;;;;;;;21.35;16.90;;;;;;;;;;5084461;28;20028;-60
2024/01/30 09:21:33;;;;;;;18.27;16.05;;;;;;;;;;5084960;28;20016;-57
2024/01/30 09:24:04;;;;;;;18.55;15.40;;;;;;;;;;5084549;28;20073;-59
2024/01/30 09:26:30;;;;;;;19.63;16.23;;;;;;;;;;5084640;28;20020;-60
2024/01/30 09:28:57;;;;;;;19.45;15.48;;;;;;;;;;5084510;28;20028;-54
2024/01/30 09:31:23;;;;;;;21.10;16.58;;;;;;;;;;5084669;28;20020;-53
2024/01/30 09:33:51;;;;;;;21.15;16.27;;;;;;;;;;5084152;28;20035;-56
2024/01/30 09:36:19;;;;;;;20.10;16.15;;;;;;;;;;5084532;28;20196;-51
2024/01/30 09:38:46;;;;;;;20.98;15.60;;;;;;;;;;5084584;28;20028;-57
2024/01/30 09:41:13;;;;;;;17.35;15.48;;;;;;;;;;5084333;28;20330;-58
2024/01/30 09:43:40;;;;;;;23.40;16.15;;;;;;;;;;5084348;28;20028;-54
2024/01/30 09:46:08;;;;;;;19.50;15.90;;;;;;;;;;5083111;28;20028;-55
2024/01/30 09:48:35;;;;;;;21.25;16.10;;;;;;;;;;5084351;28;20028;-53
2024/01/30 09:51:03;;;;;;;21.33;16.02;;;;;;;;;;5083886;28;20052;-53
2024/01/30 09:53:29;;;;;;;24.90;16.38;;;;;;;;;;5084114;28;20017;-53
2024/01/30 09:55:56;;;;;;;29.30;17.75;;;;;;;;;;5084130;28;20084;-57
2024/01/30 09:58:23;;;;;;;27.33;16.23;;;;;;;;;;5084186;28;20015;-53
2024/01/30 10:00:49;;;;;;;23.83;16.95;;;;;;;;;;5084068;28;20028;-56
2024/01/30 10:03:16;;;;;;;21.88;16.33;;;;;;;;;;5083906;28;20046;-56
2024/01/30 10:05:44;;;;;;;23.70;15.75;;;;;;;;;;5084093;28;20060;-53
2024/01/30 10:08:11;;;;;;;23.00;16.10;;;;;;;;;;5083930;28;20032;-54
2024/01/30 10:10:37;;;;;;;27.13;16.48;;;;;;;;;;5083907;28;20028;-55
2024/01/30 10:13:04;;;;;;;26.35;17.20;;;;;;;;;;5083778;28;20059;-56
2024/01/30 10:15:31;;;;;;;23.20;16.02;;;;;;;;;;5082724;28;20041;-58
2024/01/30 10:17:58;;;;;;;23.70;16.20;;;;;;;;;;5083281;28;20012;-59
2024/01/30 10:20:25;;;;;;;19.60;16.15;;;;;;;;;;5082567;28;20335;-57
2024/01/30 10:22:52;;;;;;;22.13;16.25;;;;;;;;;;5083810;28;20020;-57
2024/01/30 10:25:19;;;;;;;20.23;16.27;;;;;;;;;;5083697;28;20075;-60
2024/01/30 10:27:46;;;;;;;23.20;16.98;;;;;;;;;;5083621;28;20030;-53
2024/01/30 10:30:13;;;;;;;20.35;17.00;;;;;;;;;;5083687;28;20047;-59
2024/01/30 10:32:39;;;;;;;22.95;16.85;;;;;;;;;;5083688;28;20027;-55
2024/01/30 10:35:06;;;;;;;25.63;17.00;;;;;;;;;;5083531;28;20023;-59
2024/01/30 10:37:33;;;;;;;23.58;16.67;;;;;;;;;;5084147;28;20212;-59
2024/01/30 10:40:03;;;;;;;27.65;17.17;;;;;;;;;;5083666;28;20039;-57
2024/01/30 10:42:32;;;;;;;28.67;17.38;;;;;;;;;;5083931;28;20032;-59
2024/01/30 10:45:03;;;;;;;29.05;17.30;;;;;;;;;;5083593;28;20368;-56
2024/01/30 10:47:30;;;;;;;24.67;16.92;;;;;;;;;;5082251;28;20029;-55
2024/01/30 10:49:57;;;;;;;27.35;17.10;;;;;;;;;;5083410;28;20084;-56
2024/01/30 10:52:29;;;;;;;26.00;16.65;;;;;;;;;;5083312;28;20053;-55
2024/01/30 10:54:55;;;;;;;32.97;17.58;;;;;;;;;;5083400;28;20054;-58
2024/01/30 10:57:24;;;;;;;31.65;17.15;;;;;;;;;;5083928;28;20366;-55
2024/01/30 10:59:52;;;;;;;32.72;17.63;;;;;;;;;;5083463;28;20393;-55
2024/01/30 11:02:19;;;;;;;48.47;18.25;;;;;;;;;;5083763;28;20314;-54
2024/01/30 11:04:47;;;;;;;47.85;19.02;;;;;;;;;;5083492;28;20029;-57
2024/01/30 11:07:18;;;;;;;57.63;18.42;;;;;;;;;;5083772;28;20023;-55
2024/01/30 11:09:51;;;;;;;57.47;19.38;;;;;;;;;;5083243;28;20284;-55
2024/01/30 11:12:23;;;;;;;45.58;18.85;;;;;;;;;;5083718;28;20020;-55
2024/01/30 11:14:50;;;;;;;60.80;19.05;;;;;;;;;;5083282;28;20027;-55
2024/01/30 11:17:17;;;;;;;45.58;18.92;;;;;;;;;;5083725;28;20070;-54
2024/01/30 11:19:44;;;;;;;68.97;19.65;;;;;;;;;;5083274;28;20024;-57
2024/01/30 11:22:11;;;;;;;49.97;18.58;;;;;;;;;;5083618;28;20024;-59
2024/01/30 11:24:42;;;;;;;54.95;18.23;;;;;;;;;;5083206;28;20021;-56
2024/01/30 11:27:11;;;;;;;40.13;17.50;;;;;;;;;;5083615;28;20017;-55
2024/01/30 11:29:38;;;;;;;37.33;17.65;;;;;;;;;;5101169;28;20016;-54
2024/01/30 11:32:05;;;;;;;64.88;19.02;;;;;;;;;;5106941;28;20073;-55
2024/01/30 11:34:34;;;;;;;52.25;18.20;;;;;;;;;;5107018;28;20032;-57
2024/01/30 11:37:04;;;;;;;69.53;19.85;;;;;;;;;;5107234;28;20083;-54
2024/01/30 11:39:31;;;;;;;76.82;19.50;;;;;;;;;;5106935;28;20024;-56
2024/01/30 11:41:58;;;;;;;42.17;19.33;;;;;;;;;;5105823;28;20204;-56
2024/01/30 11:44:25;;;;;;;55.72;19.30;;;;;;;;;;5106688;28;20023;-56
2024/01/30 11:46:52;;;;;;;45.53;18.52;;;;;;;;;;5107135;28;20030;-57
2024/01/30 11:49:19;;;;;;;44.97;18.48;;;;;;;;;;5106751;28;20019;-57
2024/01/30 11:51:49;;;;;;;40.97;17.67;;;;;;;;;;5106381;28;20063;-59
2024/01/30 11:54:16;;;;;;;37.55;18.55;;;;;;;;;;5106447;28;20020;-56
2024/01/30 11:56:43;;;;;;;35.33;18.52;;;;;;;;;;5106825;28;20028;-57
2024/01/30 11:59:10;;;;;;;39.35;18.42;;;;;;;;;;5106376;28;20016;-57
2024/01/30 12:01:37;;;;;;;41.97;19.05;;;;;;;;;;5106629;28;20189;-63
2024/01/30 12:04:07;;;;;;;43.45;20.73;;;;;;;;;;5106365;28;20035;-57
2024/01/30 12:06:33;;;;;;;39.47;18.83;;;;;;;;;;5106400;28;20070;-59
2024/01/30 12:09:01;;;;;;;45.95;18.63;;;;;;;;;;5106214;28;20083;-59
2024/01/30 12:11:30;;;;;;;40.35;18.70;;;;;;;;;;5106277;28;20020;-60
2024/01/30 12:13:57;;;;;;;34.47;18.52;;;;;;;;;;5090354;28;20243;-58
2024/01/30 12:16:23;;;;;;;36.88;17.33;;;;;;;;;;5085863;28;20074;-58
2024/01/30 12:18:50;;;;;;;27.02;16.65;;;;;;;;;;5104927;28;20012;-58
2024/01/30 12:21:19;;;;;;;69.25;17.88;;;;;;;;;;5106112;28;20327;-58
2024/01/30 12:23:46;;;;;;;61.38;18.02;;;;;;;;;;5106040;28;20316;-55
2024/01/30 12:26:13;;;;;;;270.33;31.63;;;;;;;;;;5092351;28;20029;-55
2024/01/30 12:28:48;;;;;;;104.80;20.58;;;;;;;;;;5085542;28;20025;-55
2024/01/30 12:31:15;;;;;;;76.10;18.10;;;;;;;;;;5085903;28;20035;-56
2024/01/30 12:33:42;;;;;;;50.35;16.30;;;;;;;;;;5085454;28;20039;-56
2024/01/30 12:36:08;;;;;;;51.03;16.00;;;;;;;;;;5085510;28;20319;-59
2024/01/30 12:38:35;;;;;;;38.58;16.02;;;;;;;;;;5085494;28;20020;-53
2024/01/30 12:41:02;;;;;;;33.50;16.17;;;;;;;;;;5085118;28;20025;-54
2024/01/30 12:43:28;;;;;;;43.47;15.93;;;;;;;;;;5085052;28;20021;-56
2024/01/30 12:45:55;;;;;;;37.92;15.57;;;;;;;;;;5085496;28;20105;-58
2024/01/30 12:48:22;;;;;;;37.85;14.88;;;;;;;;;;5085169;28;20016;-56
2024/01/30 12:50:48;;;;;;;34.80;14.60;;;;;;;;;;5097833;28;20119;-57
2024/01/30 12:53:15;;;;;;;33.70;13.95;;;;;;;;;;5105350;28;20024;-56
2024/01/30 12:55:41;;;;;;;28.58;15.18;;;;;;;;;;5105523;28;20024;-56
2024/01/30 12:58:08;;;;;;;33.47;15.50;;;;;;;;;;5105207;28;20016;-57
2024/01/30 13:00:35;;;;;;;29.80;14.25;;;;;;;;;;5105263;28;20016;-60
2024/01/30 13:03:02;;;;;;;23.55;13.98;;;;;;;;;;5105425;28;20219;-53
2024/01/30 13:05:29;;;;;;;29.27;15.38;;;;;;;;;;5105136;28;20024;-58
2024/01/30 13:07:57;;;;;;;24.08;14.52;;;;;;;;;;5105155;28;20024;-55
2024/01/30 13:10:24;;;;;;;25.27;14.55;;;;;;;;;;5105151;28;20020;-58
2024/01/30 13:12:50;;;;;;;21.92;14.07;;;;;;;;;;5104902;28;20024;-58
2024/01/30 13:15:17;;;;;;;23.67;14.88;;;;;;;;;;5105111;28;20239;-57
2024/01/30 13:17:46;;;;;;;23.25;14.10;;;;;;;;;;5105169;28;20189;-57
2024/01/30 13:20:16;;;;;;;21.23;13.80;;;;;;;;;;5104770;28;20015;-59
2024/01/30 13:22:44;;;;;;;27.55;14.30;;;;;;;;;;5104945;28;20070;-58
2024/01/30 13:25:10;;;;;;;23.05;14.45;;;;;;;;;;5104789;28;20062;-55
2024/01/30 13:27:37;;;;;;;25.70;14.10;;;;;;;;;;5104726;28;20024;-55
2024/01/30 13:30:04;;;;;;;24.00;14.18;;;;;;;;;;5104812;28;20061;-55
2024/01/30 13:32:31;;;;;;;20.73;12.93;;;;;;;;;;5105217;28;20054;-58
2024/01/30 13:34:58;;;;;;;21.85;14.35;;;;;;;;;;5104644;28;20016;-58
2024/01/30 13:37:24;;;;;;;22.40;14.10;;;;;;;;;;5105155;28;20032;-56
2024/01/30 13:39:51;;;;;;;22.33;13.90;;;;;;;;;;5104660;28;20008;-53
2024/01/30 13:42:18;;;;;;;34.97;15.40;;;;;;;;;;5104923;28;20031;-59
2024/01/30 13:44:45;;;;;;;27.85;14.60;;;;;;;;;;5104553;28;20020;-58
2024/01/30 13:47:12;;;;;;;29.27;14.55;;;;;;;;;;5104967;28;20020;-55
2024/01/30 13:49:38;;;;;;;24.50;14.20;;;;;;;;;;5104333;28;20260;-55
2024/01/30 13:52:05;;;;;;;20.42;14.00;;;;;;;;;;5103523;28;20089;-55
2024/01/30 13:54:32;;;;;;;21.67;13.38;;;;;;;;;;5104413;28;20065;-57
2024/01/30 13:56:58;;;;;;;23.88;13.95;;;;;;;;;;5104666;28;20038;-53
2024/01/30 13:59:25;;;;;;;24.17;13.90;;;;;;;;;;5103880;28;20050;-57
2024/01/30 14:01:52;;;;;;;20.75;13.38;;;;;;;;;;5104141;28;20020;-54
2024/01/30 14:04:19;;;;;;;31.05;14.07;;;;;;;;;;5104181;28;20245;-53
2024/01/30 14:06:45;;;;;;;32.50;13.88;;;;;;;;;;5104541;28;20043;-55
2024/01/30 14:09:14;;;;;;;32.03;13.07;;;;;;;;;;5104212;28;20016;-56
2024/01/30 14:11:42;;;;;;;27.73;13.32;;;;;;;;;;5104264;28;20036;-57
2024/01/30 14:14:09;;;;;;;30.15;13.70;;;;;;;;;;5104013;28;20165;-56
2024/01/30 14:16:36;;;;;;;20.55;13.40;;;;;;;;;;5104405;28;20020;-55